Time;durP1;ratioP1;P1;durP2;ratioP2;P2;SDS_P1;SDS_P2;PMS_P1;PMS_P2;Temp;Humidity;BMP_temperature;BMP_pressure;BME280_temperature;BME280_humidity;BME280_pressure;Samples;Min_cycle;Max_cycle;Signal;HPM_P1;HPM_P2
2024/03/03 00:00:42;;;;;;;29.00;17.85;;;;;;;;;;4993590;28;20034;-77
2024/03/03 00:03:07;;;;;;;30.70;19.15;;;;;;;;;;4993435;28;20026;-78
2024/03/03 00:05:32;;;;;;;34.75;20.42;;;;;;;;;;4993582;28;20034;-77
2024/03/03 00:07:58;;;;;;;33.63;19.60;;;;;;;;;;4993783;28;20399;-77
2024/03/03 00:10:23;;;;;;;31.65;19.80;;;;;;;;;;4993530;28;20035;-77
2024/03/03 00:12:48;;;;;;;29.77;18.05;;;;;;;;;;4994818;28;20606;-77
2024/03/03 00:15:13;;;;;;;32.30;18.05;;;;;;;;;;4996446;28;20033;-78
2024/03/03 00:17:39;;;;;;;30.60;18.88;;;;;;;;;;4993439;28;20030;-77
2024/03/03 00:20:04;;;;;;;33.40;19.30;;;;;;;;;;4993543;28;20034;-77
2024/03/03 00:22:30;;;;;;;32.50;20.38;;;;;;;;;;4994088;28;20399;-77
2024/03/03 00:24:55;;;;;;;31.77;19.48;;;;;;;;;;4993454;28;20038;-77
2024/03/03 00:27:21;;;;;;;28.95;19.17;;;;;;;;;;4992410;28;20117;-77
2024/03/03 00:29:46;;;;;;;32.83;19.65;;;;;;;;;;4993152;28;20030;-78
2024/03/03 00:32:11;;;;;;;31.80;19.00;;;;;;;;;;4994199;28;20046;-77
2024/03/03 00:34:36;;;;;;;37.60;22.33;;;;;;;;;;4991644;28;20066;-78
2024/03/03 00:37:02;;;;;;;34.10;21.63;;;;;;;;;;4995285;28;20018;-77
2024/03/03 00:39:27;;;;;;;40.05;22.95;;;;;;;;;;4991597;28;20038;-77
2024/03/03 00:41:53;;;;;;;40.08;22.58;;;;;;;;;;4996845;28;20031;-77
2024/03/03 00:44:18;;;;;;;36.08;22.77;;;;;;;;;;4992693;28;20035;-77
2024/03/03 00:46:43;;;;;;;34.33;20.73;;;;;;;;;;4996873;28;20034;-77
2024/03/03 00:49:09;;;;;;;34.00;20.27;;;;;;;;;;4991739;28;20026;-78
2024/03/03 00:51:36;;;;;;;32.47;20.13;;;;;;;;;;4991847;28;20482;-77
2024/03/03 00:54:01;;;;;;;35.17;21.30;;;;;;;;;;4991303;28;20102;-78
2024/03/03 00:56:26;;;;;;;37.15;23.40;;;;;;;;;;4990038;28;20491;-77
2024/03/03 00:58:51;;;;;;;32.40;20.40;;;;;;;;;;4993022;28;20504;-77
2024/03/03 01:01:18;;;;;;;37.25;21.42;;;;;;;;;;4992799;28;20124;-77
2024/03/03 01:03:43;;;;;;;36.97;20.20;;;;;;;;;;4989332;28;20060;-77
2024/03/03 01:06:08;;;;;;;35.45;20.98;;;;;;;;;;4991464;28;20487;-77
2024/03/03 01:08:33;;;;;;;37.35;22.40;;;;;;;;;;4992501;28;20030;-78
2024/03/03 01:11:00;;;;;;;35.63;20.70;;;;;;;;;;5001898;28;20050;-78
2024/03/03 01:13:25;;;;;;;34.58;21.45;;;;;;;;;;4995695;28;20031;-78
2024/03/03 01:15:50;;;;;;;33.70;21.67;;;;;;;;;;4999481;28;20066;-77
2024/03/03 01:18:15;;;;;;;35.08;21.08;;;;;;;;;;4992408;28;20035;-77
2024/03/03 01:20:40;;;;;;;34.13;21.20;;;;;;;;;;4990842;28;20117;-77
2024/03/03 01:23:06;;;;;;;41.05;23.02;;;;;;;;;;5004584;28;20030;-77
2024/03/03 01:25:31;;;;;;;35.05;22.17;;;;;;;;;;4992066;28;20558;-77
2024/03/03 01:27:56;;;;;;;33.08;21.85;;;;;;;;;;5003942;28;20042;-77
2024/03/03 01:30:21;;;;;;;35.80;21.23;;;;;;;;;;4991891;28;20039;-77
2024/03/03 01:32:46;;;;;;;33.92;21.00;;;;;;;;;;4993610;28;20114;-77
2024/03/03 01:35:12;;;;;;;38.05;22.38;;;;;;;;;;4992316;28;20042;-77
2024/03/03 01:37:37;;;;;;;34.83;20.42;;;;;;;;;;4991858;28;20501;-78
2024/03/03 01:40:04;;;;;;;38.58;21.50;;;;;;;;;;5002462;28;20053;-77
2024/03/03 01:42:29;;;;;;;33.95;22.70;;;;;;;;;;4989317;28;20034;-77
2024/03/03 01:44:54;;;;;;;31.67;19.75;;;;;;;;;;4987682;28;20141;-77
2024/03/03 01:47:19;;;;;;;33.85;22.33;;;;;;;;;;4991987;28;20038;-77
2024/03/03 01:49:47;;;;;;;35.83;21.63;;;;;;;;;;4991632;28;20026;-77
2024/03/03 01:52:13;;;;;;;34.50;21.95;;;;;;;;;;4991480;28;20557;-77
2024/03/03 01:54:38;;;;;;;34.65;20.52;;;;;;;;;;4993543;28;20038;-77
2024/03/03 01:57:09;;;;;;;35.45;21.95;;;;;;;;;;4990387;28;20395;-77
2024/03/03 01:59:35;;;;;;;36.55;23.58;;;;;;;;;;4990069;28;20165;-77
2024/03/03 02:02:01;;;;;;;35.78;22.00;;;;;;;;;;4990158;28;20669;-77
2024/03/03 02:04:26;;;;;;;39.65;22.20;;;;;;;;;;4993755;28;20116;-77
2024/03/03 02:06:51;;;;;;;29.58;19.83;;;;;;;;;;5001699;28;20038;-77
2024/03/03 02:09:17;;;;;;;38.03;23.85;;;;;;;;;;4990263;28;20032;-80
2024/03/03 02:11:43;;;;;;;37.55;24.15;;;;;;;;;;4991788;28;20104;-77
2024/03/03 02:14:08;;;;;;;36.50;23.75;;;;;;;;;;4990085;28;20030;-77
2024/03/03 02:16:33;;;;;;;34.90;22.80;;;;;;;;;;4991394;28;20026;-78
2024/03/03 02:18:59;;;;;;;33.40;21.23;;;;;;;;;;5000516;28;20503;-77
2024/03/03 02:21:24;;;;;;;35.10;22.67;;;;;;;;;;4991009;28;20407;-77
2024/03/03 02:23:49;;;;;;;34.83;23.88;;;;;;;;;;4991805;28;20121;-77
2024/03/03 02:26:15;;;;;;;29.83;20.23;;;;;;;;;;4990125;28;20072;-77
2024/03/03 02:28:41;;;;;;;29.30;20.23;;;;;;;;;;4989879;28;20034;-77
2024/03/03 02:31:07;;;;;;;30.63;20.30;;;;;;;;;;4990747;28;20038;-77
2024/03/03 02:33:32;;;;;;;31.02;21.27;;;;;;;;;;4993893;28;20481;-77
2024/03/03 02:35:57;;;;;;;32.75;21.65;;;;;;;;;;5004571;28;20507;-77
2024/03/03 02:38:22;;;;;;;27.17;18.42;;;;;;;;;;4991183;28;20503;-77
2024/03/03 02:40:47;;;;;;;29.40;19.20;;;;;;;;;;4991156;28;20117;-77
2024/03/03 02:43:12;;;;;;;28.23;18.30;;;;;;;;;;4993111;28;20026;-77
2024/03/03 02:45:38;;;;;;;26.92;19.55;;;;;;;;;;4990898;28;20475;-78
2024/03/03 02:48:03;;;;;;;29.10;19.88;;;;;;;;;;4995191;28;20034;-77
2024/03/03 02:50:29;;;;;;;30.48;20.02;;;;;;;;;;4991784;28;20031;-78
2024/03/03 02:52:54;;;;;;;27.75;19.10;;;;;;;;;;4998488;28;20057;-78
2024/03/03 02:55:19;;;;;;;29.15;19.70;;;;;;;;;;4997445;28;20505;-77
2024/03/03 02:57:44;;;;;;;28.65;18.55;;;;;;;;;;4996187;28;20014;-78
2024/03/03 03:00:12;;;;;;;27.33;17.77;;;;;;;;;;5006187;28;20034;-78
2024/03/03 03:02:38;;;;;;;27.60;18.60;;;;;;;;;;4997450;28;20046;-77
2024/03/03 03:05:03;;;;;;;24.65;17.65;;;;;;;;;;4993485;28;20042;-77
2024/03/03 03:07:28;;;;;;;27.65;19.38;;;;;;;;;;4996245;28;20037;-77
2024/03/03 03:09:54;;;;;;;27.67;19.35;;;;;;;;;;4996167;28;20045;-78
2024/03/03 03:12:19;;;;;;;27.98;18.02;;;;;;;;;;5003197;28;20038;-78
2024/03/03 03:14:44;;;;;;;25.73;17.52;;;;;;;;;;4995850;28;20502;-77
2024/03/03 03:17:09;;;;;;;25.30;17.08;;;;;;;;;;4996390;28;20038;-78
2024/03/03 03:19:35;;;;;;;27.35;17.85;;;;;;;;;;4995832;28;20402;-78
2024/03/03 03:22:01;;;;;;;26.40;17.55;;;;;;;;;;4999713;28;20027;-78
2024/03/03 03:24:29;;;;;;;28.63;17.38;;;;;;;;;;4997093;28;20041;-78
2024/03/03 03:26:55;;;;;;;24.25;17.90;;;;;;;;;;4997602;28;20042;-78
2024/03/03 03:29:20;;;;;;;26.77;17.58;;;;;;;;;;4997321;28;20037;-77
2024/03/03 03:31:45;;;;;;;24.25;17.08;;;;;;;;;;4997432;28;20406;-78
2024/03/03 03:34:10;;;;;;;24.45;15.88;;;;;;;;;;4995827;28;20033;-78
2024/03/03 03:36:36;;;;;;;24.58;15.63;;;;;;;;;;4997142;28;20490;-77
2024/03/03 03:39:01;;;;;;;24.58;16.90;;;;;;;;;;4996285;28;20118;-78
2024/03/03 03:41:26;;;;;;;23.67;15.27;;;;;;;;;;4996606;28;20110;-77
2024/03/03 03:43:51;;;;;;;22.88;14.73;;;;;;;;;;4998925;28;20034;-77
2024/03/03 03:46:17;;;;;;;23.67;15.98;;;;;;;;;;4997444;28;20502;-78
2024/03/03 03:48:42;;;;;;;22.55;16.23;;;;;;;;;;4997118;28;20037;-77
2024/03/03 03:51:07;;;;;;;22.17;15.55;;;;;;;;;;4997028;28;20494;-78
2024/03/03 03:53:32;;;;;;;22.38;15.85;;;;;;;;;;4999752;28;20042;-78
2024/03/03 03:55:57;;;;;;;23.70;14.70;;;;;;;;;;4996999;28;20053;-78
2024/03/03 03:58:22;;;;;;;19.30;13.77;;;;;;;;;;4998140;28;20395;-78
2024/03/03 04:00:48;;;;;;;22.80;15.13;;;;;;;;;;4994640;28;20109;-78
2024/03/03 04:03:13;;;;;;;22.40;16.13;;;;;;;;;;4996278;28;20438;-78
2024/03/03 04:05:38;;;;;;;23.55;15.80;;;;;;;;;;4993838;28;20042;-77
2024/03/03 04:08:03;;;;;;;20.65;14.52;;;;;;;;;;4994079;28;20038;-77
2024/03/03 04:10:28;;;;;;;18.92;13.75;;;;;;;;;;4994380;28;20054;-77
2024/03/03 04:12:55;;;;;;;20.52;13.52;;;;;;;;;;4995232;28;20030;-78
2024/03/03 04:15:21;;;;;;;22.80;14.25;;;;;;;;;;4992464;28;20041;-77
2024/03/03 04:17:46;;;;;;;21.38;14.10;;;;;;;;;;4993883;28;20022;-77
2024/03/03 04:20:12;;;;;;;21.83;14.68;;;;;;;;;;4992492;28;20034;-78
2024/03/03 04:22:37;;;;;;;20.38;13.55;;;;;;;;;;4999352;28;20036;-77
2024/03/03 04:25:02;;;;;;;21.83;14.57;;;;;;;;;;5003199;28;20097;-78
2024/03/03 04:27:28;;;;;;;24.33;15.80;;;;;;;;;;4994804;28;20120;-77
2024/03/03 04:29:53;;;;;;;21.65;13.82;;;;;;;;;;4993516;28;20403;-78
2024/03/03 04:32:18;;;;;;;21.27;15.02;;;;;;;;;;4995593;28;20030;-78
2024/03/03 04:34:43;;;;;;;22.85;15.07;;;;;;;;;;4993042;28;20076;-78
2024/03/03 04:37:09;;;;;;;24.65;16.63;;;;;;;;;;4989860;28;20038;-77
2024/03/03 04:39:35;;;;;;;22.20;15.38;;;;;;;;;;4993232;28;20045;-77
2024/03/03 04:42:02;;;;;;;26.33;16.17;;;;;;;;;;4992475;28;20029;-77
2024/03/03 04:44:28;;;;;;;24.48;15.00;;;;;;;;;;4993412;28;20054;-77
2024/03/03 04:46:53;;;;;;;20.73;13.60;;;;;;;;;;4993305;28;20511;-77
2024/03/03 04:49:18;;;;;;;19.17;12.75;;;;;;;;;;4993137;28;20046;-78
2024/03/03 04:51:43;;;;;;;22.73;14.15;;;;;;;;;;4988439;28;20117;-78
2024/03/03 04:54:09;;;;;;;17.20;12.27;;;;;;;;;;4988087;28;20041;-77
2024/03/03 04:56:34;;;;;;;19.95;13.88;;;;;;;;;;4991717;28;20074;-77
2024/03/03 04:58:59;;;;;;;23.75;15.00;;;;;;;;;;4992778;28;20133;-77
2024/03/03 05:01:24;;;;;;;25.08;15.27;;;;;;;;;;4988849;28;20030;-78
2024/03/03 05:03:50;;;;;;;20.77;13.85;;;;;;;;;;4996886;28;20088;-78
2024/03/03 05:06:15;;;;;;;24.15;15.43;;;;;;;;;;4991470;28;20534;-77
2024/03/03 05:08:40;;;;;;;19.73;14.32;;;;;;;;;;4992456;28;20046;-77
2024/03/03 05:11:06;;;;;;;21.45;13.38;;;;;;;;;;4992126;28;20039;-78
2024/03/03 05:13:32;;;;;;;22.17;15.10;;;;;;;;;;4993215;28;20088;-78
2024/03/03 05:15:58;;;;;;;20.45;13.35;;;;;;;;;;4995025;28;20034;-77
2024/03/03 05:18:23;;;;;;;21.73;14.70;;;;;;;;;;4992647;28;20038;-77
2024/03/03 05:20:49;;;;;;;21.67;14.63;;;;;;;;;;4991362;28;20030;-78
2024/03/03 05:23:14;;;;;;;22.88;14.10;;;;;;;;;;4995539;28;20435;-77
2024/03/03 05:25:40;;;;;;;19.88;13.82;;;;;;;;;;4992084;28;20038;-78
2024/03/03 05:28:06;;;;;;;20.55;13.63;;;;;;;;;;4992263;28;20789;-78
2024/03/03 05:30:36;;;;;;;19.60;12.57;;;;;;;;;;4990799;28;20121;-78
2024/03/03 05:33:01;;;;;;;24.27;13.95;;;;;;;;;;4992400;28;20206;-78
2024/03/03 05:35:26;;;;;;;18.35;12.10;;;;;;;;;;4991826;28;20121;-77
2024/03/03 05:37:51;;;;;;;20.30;13.52;;;;;;;;;;4996979;28;20034;-77
2024/03/03 05:40:16;;;;;;;19.85;12.77;;;;;;;;;;4991943;28;20026;-77
2024/03/03 05:42:42;;;;;;;19.80;12.63;;;;;;;;;;4994056;28;20050;-78
2024/03/03 05:45:08;;;;;;;19.33;12.48;;;;;;;;;;4992051;28;20026;-77
2024/03/03 05:47:33;;;;;;;20.20;13.63;;;;;;;;;;4991910;28;20543;-78
2024/03/03 05:49:58;;;;;;;20.42;13.02;;;;;;;;;;4989250;28;20045;-78
2024/03/03 05:52:23;;;;;;;20.98;13.05;;;;;;;;;;4994006;28;20398;-77
2024/03/03 05:54:49;;;;;;;20.75;12.10;;;;;;;;;;4991487;28;20066;-77
2024/03/03 05:57:14;;;;;;;18.73;12.05;;;;;;;;;;4992502;28;20026;-78
2024/03/03 05:59:39;;;;;;;17.50;11.68;;;;;;;;;;4991394;28;20038;-77
2024/03/03 06:02:04;;;;;;;18.23;11.75;;;;;;;;;;4993452;28;20041;-77
2024/03/03 06:04:30;;;;;;;17.60;11.88;;;;;;;;;;4992655;28;20037;-77
2024/03/03 06:06:55;;;;;;;15.95;10.50;;;;;;;;;;4991433;28;20487;-78
2024/03/03 06:09:20;;;;;;;20.75;11.95;;;;;;;;;;4993009;28;20035;-78
2024/03/03 06:11:45;;;;;;;15.60;10.20;;;;;;;;;;4994271;28;20458;-77
2024/03/03 06:14:11;;;;;;;16.05;10.20;;;;;;;;;;4991968;28;20027;-78
2024/03/03 06:16:37;;;;;;;17.15;11.13;;;;;;;;;;4991530;28;20034;-77
2024/03/03 06:19:02;;;;;;;15.77;10.20;;;;;;;;;;4991462;28;20030;-77
2024/03/03 06:21:28;;;;;;;17.48;11.15;;;;;;;;;;4990596;28;20045;-77
2024/03/03 06:23:53;;;;;;;16.23;10.77;;;;;;;;;;4992527;28;20034;-77
2024/03/03 06:26:18;;;;;;;17.35;10.63;;;;;;;;;;4991294;28;20066;-78
2024/03/03 06:28:44;;;;;;;16.10;10.73;;;;;;;;;;4991249;28;20109;-77
2024/03/03 06:31:10;;;;;;;15.05;9.52;;;;;;;;;;4990830;28;20034;-77
2024/03/03 06:33:35;;;;;;;14.68;8.45;;;;;;;;;;4993507;28;20042;-78
2024/03/03 06:36:00;;;;;;;13.88;8.73;;;;;;;;;;4990917;28;20034;-77
2024/03/03 06:38:25;;;;;;;16.13;9.10;;;;;;;;;;4991264;28;20029;-78
2024/03/03 06:40:51;;;;;;;14.02;9.80;;;;;;;;;;4991157;28;20395;-77
2024/03/03 06:43:16;;;;;;;13.73;8.60;;;;;;;;;;4992666;28;20472;-77
2024/03/03 06:45:41;;;;;;;16.35;8.88;;;;;;;;;;4990920;28;20121;-77
2024/03/03 06:48:06;;;;;;;18.08;9.75;;;;;;;;;;4987215;28;20388;-78
2024/03/03 06:50:31;;;;;;;15.73;9.05;;;;;;;;;;4990642;28;20042;-77
2024/03/03 06:52:57;;;;;;;16.38;9.10;;;;;;;;;;4988354;28;20109;-78
2024/03/03 06:55:22;;;;;;;14.50;9.35;;;;;;;;;;4991174;28;20045;-77
2024/03/03 06:57:47;;;;;;;14.55;9.20;;;;;;;;;;4988131;28;20042;-78
2024/03/03 07:00:13;;;;;;;14.20;9.20;;;;;;;;;;4990934;28;20053;-77
2024/03/03 07:03:04;;;;;;;13.55;9.27;;;;;;;;;;4991991;28;20085;-78
2024/03/03 07:05:29;;;;;;;14.27;8.90;;;;;;;;;;4990825;28;20514;-77
2024/03/03 07:07:54;;;;;;;16.65;10.38;;;;;;;;;;4990897;28;20039;-77
2024/03/03 07:10:19;;;;;;;14.27;8.70;;;;;;;;;;4990946;28;20034;-78
2024/03/03 07:12:44;;;;;;;13.35;7.93;;;;;;;;;;4993242;28;20030;-77
2024/03/03 07:15:09;;;;;;;11.00;7.50;;;;;;;;;;4995744;28;20034;-77
2024/03/03 07:17:35;;;;;;;12.90;7.57;;;;;;;;;;4990942;28;20029;-78
2024/03/03 07:20:02;;;;;;;14.73;9.48;;;;;;;;;;4990767;28;20027;-78
2024/03/03 07:22:33;;;;;;;12.23;8.85;;;;;;;;;;4993404;28;20022;-78
2024/03/03 07:24:58;;;;;;;13.38;8.25;;;;;;;;;;4990829;28;20450;-78
2024/03/03 07:27:23;;;;;;;13.50;9.02;;;;;;;;;;4990863;28;20034;-78
2024/03/03 07:29:48;;;;;;;13.27;8.35;;;;;;;;;;4990821;28;20041;-77
2024/03/03 07:32:13;;;;;;;13.27;9.03;;;;;;;;;;4990866;28;20062;-78
2024/03/03 07:34:41;;;;;;;14.13;8.23;;;;;;;;;;4990632;28;20657;-77
2024/03/03 07:37:06;;;;;;;13.60;8.45;;;;;;;;;;4993339;28;20058;-78
2024/03/03 07:39:32;;;;;;;13.07;8.20;;;;;;;;;;4994458;28;20073;-77
2024/03/03 07:41:57;;;;;;;12.05;8.50;;;;;;;;;;4993875;28;20840;-78
2024/03/03 07:44:22;;;;;;;11.88;7.65;;;;;;;;;;4995534;28;20046;-78
2024/03/03 07:46:47;;;;;;;15.10;9.65;;;;;;;;;;4994365;28;20034;-78
2024/03/03 07:49:12;;;;;;;13.60;8.50;;;;;;;;;;4996275;28;20062;-78
2024/03/03 07:51:37;;;;;;;13.83;9.70;;;;;;;;;;4993641;28;20085;-78
2024/03/03 07:54:03;;;;;;;14.90;8.67;;;;;;;;;;4996226;28;20729;-78
2024/03/03 07:56:28;;;;;;;13.95;9.20;;;;;;;;;;4994063;28;20273;-78
2024/03/03 07:58:53;;;;;;;14.50;9.20;;;;;;;;;;4994035;28;20438;-77
2024/03/03 08:01:18;;;;;;;14.50;8.90;;;;;;;;;;4993602;28;20057;-78
2024/03/03 08:03:43;;;;;;;12.85;8.73;;;;;;;;;;4997189;28;20277;-78
2024/03/03 08:06:10;;;;;;;13.02;8.88;;;;;;;;;;4994678;28;20057;-77
2024/03/03 08:08:36;;;;;;;14.73;9.68;;;;;;;;;;4993949;28;20057;-78
2024/03/03 08:11:01;;;;;;;12.27;8.30;;;;;;;;;;4993579;28;20057;-78
2024/03/03 08:13:26;;;;;;;13.82;9.30;;;;;;;;;;4994009;28;20030;-78
2024/03/03 08:15:51;;;;;;;14.65;8.57;;;;;;;;;;4993344;28;20030;-78
2024/03/03 08:18:16;;;;;;;11.80;8.52;;;;;;;;;;4994368;28;20023;-78
2024/03/03 08:20:42;;;;;;;12.65;8.15;;;;;;;;;;4993511;28;20175;-78
2024/03/03 08:23:07;;;;;;;12.93;8.10;;;;;;;;;;4996135;28;20058;-78
2024/03/03 08:25:32;;;;;;;12.77;8.68;;;;;;;;;;4993265;28;20269;-78
2024/03/03 08:28:01;;;;;;;13.85;9.05;;;;;;;;;;4993530;28;20426;-78
2024/03/03 08:30:28;;;;;;;12.57;8.23;;;;;;;;;;4993300;28;20418;-78
2024/03/03 08:32:53;;;;;;;12.40;8.02;;;;;;;;;;4995200;28;20030;-78
2024/03/03 08:35:18;;;;;;;11.98;7.95;;;;;;;;;;4993260;28;20480;-78
2024/03/03 08:37:45;;;;;;;13.97;8.73;;;;;;;;;;4993268;28;20114;-78
2024/03/03 08:40:11;;;;;;;13.00;8.32;;;;;;;;;;4993197;28;20285;-78
2024/03/03 08:42:36;;;;;;;12.60;8.75;;;;;;;;;;4994229;28;20026;-78
2024/03/03 08:45:01;;;;;;;13.40;9.07;;;;;;;;;;4993040;28;20041;-78
2024/03/03 08:47:26;;;;;;;15.18;9.30;;;;;;;;;;4992394;28;20053;-78
2024/03/03 08:49:52;;;;;;;12.60;9.50;;;;;;;;;;4992906;28;20285;-78
2024/03/03 08:52:17;;;;;;;13.90;9.13;;;;;;;;;;4994172;28;20049;-78
2024/03/03 08:54:42;;;;;;;13.80;9.55;;;;;;;;;;4992745;28;20042;-78
2024/03/03 08:57:08;;;;;;;14.40;9.50;;;;;;;;;;4993078;28;20030;-78
2024/03/03 08:59:33;;;;;;;14.33;9.30;;;;;;;;;;4992430;28;20038;-78
2024/03/03 09:01:58;;;;;;;13.65;9.20;;;;;;;;;;5001144;28;20288;-78
2024/03/03 09:04:23;;;;;;;13.90;8.90;;;;;;;;;;4991977;28;20140;-78
2024/03/03 09:06:48;;;;;;;13.18;9.32;;;;;;;;;;4994009;28;20034;-78
2024/03/03 09:09:16;;;;;;;16.63;10.40;;;;;;;;;;4992855;28;20030;-78
2024/03/03 09:11:43;;;;;;;13.38;8.77;;;;;;;;;;4992312;28;20418;-78
2024/03/03 09:14:09;;;;;;;14.15;10.13;;;;;;;;;;4994573;28;20117;-78
2024/03/03 09:16:34;;;;;;;13.90;8.82;;;;;;;;;;4992477;28;20117;-78
2024/03/03 09:18:59;;;;;;;13.73;9.23;;;;;;;;;;4994379;28;20089;-78
2024/03/03 09:21:24;;;;;;;12.88;8.95;;;;;;;;;;4994446;28;20303;-78
2024/03/03 09:23:49;;;;;;;12.90;8.97;;;;;;;;;;4994513;28;20090;-78
2024/03/03 09:26:15;;;;;;;14.68;10.02;;;;;;;;;;4992418;28;20281;-78
2024/03/03 09:28:40;;;;;;;14.13;9.52;;;;;;;;;;4992395;28;20031;-78
2024/03/03 09:31:06;;;;;;;14.07;9.68;;;;;;;;;;4991853;28;20086;-78
2024/03/03 09:33:31;;;;;;;15.75;8.90;;;;;;;;;;4995156;28;20038;-78
2024/03/03 09:35:56;;;;;;;13.43;9.07;;;;;;;;;;4992025;28;20042;-78
2024/03/03 09:38:21;;;;;;;13.57;9.35;;;;;;;;;;4992502;28;20046;-78
2024/03/03 09:40:47;;;;;;;14.50;9.52;;;;;;;;;;4992107;28;20117;-78
2024/03/03 09:43:18;;;;;;;13.70;9.48;;;;;;;;;;4993130;28;20038;-78
2024/03/03 09:45:48;;;;;;;12.68;9.15;;;;;;;;;;4991802;28;20141;-78
2024/03/03 09:48:13;;;;;;;14.48;8.98;;;;;;;;;;4988396;28;20586;-78
2024/03/03 09:50:39;;;;;;;12.65;8.95;;;;;;;;;;4992071;28;20041;-78
2024/03/03 09:53:06;;;;;;;14.18;9.20;;;;;;;;;;4993583;28;20057;-78
2024/03/03 09:55:31;;;;;;;13.57;9.55;;;;;;;;;;4991591;28;20034;-78
2024/03/03 09:57:57;;;;;;;14.93;9.25;;;;;;;;;;4991908;28;20026;-78
2024/03/03 10:00:22;;;;;;;14.50;9.52;;;;;;;;;;4987869;28;20518;-78
2024/03/03 10:02:47;;;;;;;13.18;9.00;;;;;;;;;;4994683;28;20034;-78
2024/03/03 10:05:14;;;;;;;13.80;9.05;;;;;;;;;;4991706;28;20033;-78
2024/03/03 10:07:43;;;;;;;16.08;8.98;;;;;;;;;;4991571;28;20039;-78
2024/03/03 10:10:11;;;;;;;12.98;8.52;;;;;;;;;;4991625;28;20037;-78
2024/03/03 10:12:36;;;;;;;13.40;8.65;;;;;;;;;;4994441;28;20088;-78
2024/03/03 10:15:04;;;;;;;13.55;9.20;;;;;;;;;;4991335;28;20049;-78
2024/03/03 10:17:29;;;;;;;14.00;9.45;;;;;;;;;;4991743;28;20081;-78
2024/03/03 10:19:59;;;;;;;13.82;8.02;;;;;;;;;;4991810;28;20030;-78
2024/03/03 10:22:24;;;;;;;13.05;9.20;;;;;;;;;;4992257;28;20025;-78
2024/03/03 10:24:49;;;;;;;14.57;9.18;;;;;;;;;;4990842;28;20523;-78
2024/03/03 10:27:18;;;;;;;13.20;8.70;;;;;;;;;;4991044;28;20037;-78
2024/03/03 10:29:44;;;;;;;13.93;9.10;;;;;;;;;;4988424;28;20356;-78
2024/03/03 10:32:09;;;;;;;13.55;9.23;;;;;;;;;;4991226;28;20113;-78
2024/03/03 10:34:35;;;;;;;16.38;9.90;;;;;;;;;;4992721;28;20514;-78
2024/03/03 10:37:01;;;;;;;15.10;9.15;;;;;;;;;;4992364;28;20479;-78
2024/03/03 10:39:27;;;;;;;13.02;8.15;;;;;;;;;;4991159;28;20545;-78
2024/03/03 10:41:52;;;;;;;15.88;8.80;;;;;;;;;;4990858;28;20030;-78
2024/03/03 10:44:17;;;;;;;15.88;8.77;;;;;;;;;;4992598;28;20483;-78
2024/03/03 10:46:45;;;;;;;12.60;8.70;;;;;;;;;;4991088;28;20041;-78
2024/03/03 10:49:13;;;;;;;13.40;9.48;;;;;;;;;;4991357;28;20292;-77
2024/03/03 10:51:38;;;;;;;14.35;9.02;;;;;;;;;;4990539;28;20034;-78
2024/03/03 10:54:04;;;;;;;12.03;8.30;;;;;;;;;;4986592;28;20388;-78
2024/03/03 10:56:29;;;;;;;13.75;9.15;;;;;;;;;;4991320;28;20270;-77
2024/03/03 10:58:55;;;;;;;13.93;8.88;;;;;;;;;;4990996;28;20089;-78
2024/03/03 11:01:21;;;;;;;13.63;8.65;;;;;;;;;;4990853;28;20915;-78
2024/03/03 11:03:47;;;;;;;12.95;9.07;;;;;;;;;;4992062;28;20026;-78
2024/03/03 11:06:12;;;;;;;13.75;8.27;;;;;;;;;;4991389;28;20030;-78
2024/03/03 11:08:39;;;;;;;19.47;9.10;;;;;;;;;;4991534;28;20105;-78
2024/03/03 11:11:06;;;;;;;11.25;7.55;;;;;;;;;;4989962;28;20670;-78
2024/03/03 11:13:31;;;;;;;12.35;8.77;;;;;;;;;;4997803;28;20364;-79
2024/03/03 11:16:00;;;;;;;13.20;9.27;;;;;;;;;;4995119;28;20046;-78
2024/03/03 11:18:26;;;;;;;11.73;8.13;;;;;;;;;;4995188;28;20019;-78
2024/03/03 11:20:53;;;;;;;14.38;9.40;;;;;;;;;;4996218;28;20042;-78
2024/03/03 11:23:38;;;;;;;12.80;9.13;;;;;;;;;;4991546;28;20038;-78
2024/03/03 11:26:11;;;;;;;14.65;9.00;;;;;;;;;;4993854;28;20141;-78
2024/03/03 11:28:37;;;;;;;13.00;8.55;;;;;;;;;;4992486;28;20554;-78
2024/03/03 11:31:02;;;;;;;12.15;8.07;;;;;;;;;;4994515;28;20092;-78
2024/03/03 11:33:28;;;;;;;15.68;9.10;;;;;;;;;;4995515;28;20073;-78
2024/03/03 11:35:54;;;;;;;12.10;8.60;;;;;;;;;;4994624;28;20062;-78
2024/03/03 11:38:20;;;;;;;11.15;7.70;;;;;;;;;;4994933;28;20129;-78
2024/03/03 11:40:45;;;;;;;11.93;7.30;;;;;;;;;;4994812;28;20073;-78
2024/03/03 11:43:10;;;;;;;11.93;7.50;;;;;;;;;;4994817;28;20034;-78
2024/03/03 11:45:45;;;;;;;13.35;7.90;;;;;;;;;;4994396;28;20277;-78
2024/03/03 11:48:14;;;;;;;14.40;8.93;;;;;;;;;;4994597;28;20491;-78
2024/03/03 11:50:39;;;;;;;12.02;8.05;;;;;;;;;;4994102;28;20041;-77
2024/03/03 11:53:04;;;;;;;16.88;9.30;;;;;;;;;;5001282;28;20053;-78
2024/03/03 11:55:30;;;;;;;11.68;7.68;;;;;;;;;;4994415;28;20034;-78
2024/03/03 11:57:56;;;;;;;11.65;7.65;;;;;;;;;;4994154;28;20034;-78
2024/03/03 12:00:27;;;;;;;12.45;7.63;;;;;;;;;;4994275;28;20077;-78
2024/03/03 12:02:52;;;;;;;12.50;8.38;;;;;;;;;;4992823;28;20395;-78
2024/03/03 12:05:18;;;;;;;11.63;7.28;;;;;;;;;;4993856;28;20057;-78
2024/03/03 12:07:44;;;;;;;12.90;7.95;;;;;;;;;;4991139;28;20476;-78
2024/03/03 12:10:20;;;;;;;12.85;8.00;;;;;;;;;;4996181;28;20523;-78
2024/03/03 12:12:47;;;;;;;12.60;7.53;;;;;;;;;;4993384;28;20487;-78
2024/03/03 12:15:12;;;;;;;11.23;7.25;;;;;;;;;;4997289;28;20386;-78
2024/03/03 12:17:37;;;;;;;10.90;7.30;;;;;;;;;;4993684;28;20026;-78
2024/03/03 12:20:05;;;;;;;12.75;8.07;;;;;;;;;;4992454;28;20037;-78
2024/03/03 12:22:31;;;;;;;11.23;7.72;;;;;;;;;;4991816;28;20030;-78
2024/03/03 12:24:57;;;;;;;11.60;8.13;;;;;;;;;;4993461;28;20053;-77
2024/03/03 12:27:23;;;;;;;11.02;8.20;;;;;;;;;;4994119;28;20034;-78
2024/03/03 12:30:03;;;;;;;10.80;7.72;;;;;;;;;;4993498;28;20041;-78
2024/03/03 12:32:28;;;;;;;13.32;8.13;;;;;;;;;;5004049;28;20030;-78
2024/03/03 12:34:56;;;;;;;11.70;8.15;;;;;;;;;;4993245;28;20525;-78
2024/03/03 12:37:23;;;;;;;11.13;7.40;;;;;;;;;;4993409;28;20065;-78
2024/03/03 12:39:48;;;;;;;11.45;8.63;;;;;;;;;;4993622;28;20149;-78
2024/03/03 12:42:13;;;;;;;12.50;7.20;;;;;;;;;;4992813;28;20112;-78
2024/03/03 12:44:40;;;;;;;9.70;7.18;;;;;;;;;;4994344;28;20058;-78
2024/03/03 12:47:10;;;;;;;14.65;7.60;;;;;;;;;;4993484;28;20117;-78
2024/03/03 12:49:36;;;;;;;12.25;7.47;;;;;;;;;;4997102;28;20073;-78
2024/03/03 12:52:01;;;;;;;10.63;6.43;;;;;;;;;;4995259;28;20840;-78
2024/03/03 12:54:26;;;;;;;11.35;7.60;;;;;;;;;;4993279;28;20030;-78
2024/03/03 12:56:51;;;;;;;12.07;7.23;;;;;;;;;;4992933;28;20045;-78
2024/03/03 12:59:16;;;;;;;10.05;6.85;;;;;;;;;;4996737;28;20376;-78
2024/03/03 13:01:42;;;;;;;11.40;6.93;;;;;;;;;;4992431;28;20126;-78
2024/03/03 13:04:09;;;;;;;9.50;6.60;;;;;;;;;;4994039;28;20284;-78
2024/03/03 13:06:34;;;;;;;10.23;6.07;;;;;;;;;;4995446;28;20045;-78
2024/03/03 13:08:59;;;;;;;9.48;6.88;;;;;;;;;;4992793;28;20407;-78
2024/03/03 13:11:24;;;;;;;11.87;6.67;;;;;;;;;;4995477;28;20483;-78
2024/03/03 13:13:50;;;;;;;9.02;6.28;;;;;;;;;;4994581;28;20368;-78
2024/03/03 13:16:16;;;;;;;11.95;6.50;;;;;;;;;;5009350;28;20025;-78
2024/03/03 13:18:41;;;;;;;12.07;7.00;;;;;;;;;;4995899;28;20029;-78
2024/03/03 13:21:10;;;;;;;11.07;6.90;;;;;;;;;;4992476;28;20038;-78
2024/03/03 13:23:35;;;;;;;9.00;6.10;;;;;;;;;;4995591;28;20277;-78
2024/03/03 13:26:00;;;;;;;10.98;6.35;;;;;;;;;;4992537;28;20058;-78
2024/03/03 13:28:26;;;;;;;10.48;7.30;;;;;;;;;;4992528;28;20093;-78
2024/03/03 13:30:58;;;;;;;9.43;6.35;;;;;;;;;;4992801;28;20038;-78
2024/03/03 13:33:23;;;;;;;8.55;5.95;;;;;;;;;;4992110;28;20105;-78
2024/03/03 13:35:49;;;;;;;8.57;6.30;;;;;;;;;;4992001;28;20590;-78
2024/03/03 13:38:15;;;;;;;7.67;5.40;;;;;;;;;;4992382;28;20412;-77
2024/03/03 13:40:40;;;;;;;9.10;6.63;;;;;;;;;;4992089;28;20262;-78
2024/03/03 13:43:06;;;;;;;11.88;6.45;;;;;;;;;;4992187;28;20053;-78
2024/03/03 13:45:32;;;;;;;9.65;6.10;;;;;;;;;;4991934;28;20026;-78
2024/03/03 13:48:11;;;;;;;8.10;5.80;;;;;;;;;;4991984;28;20054;-78
2024/03/03 13:50:36;;;;;;;8.77;6.07;;;;;;;;;;4989044;28;20034;-78
2024/03/03 13:53:01;;;;;;;9.32;6.13;;;;;;;;;;4993672;28;20406;-78
2024/03/03 13:55:26;;;;;;;9.37;6.83;;;;;;;;;;4991801;28;20035;-78
2024/03/03 13:57:52;;;;;;;9.27;6.68;;;;;;;;;;4992340;28;20277;-78
2024/03/03 14:00:17;;;;;;;9.77;6.10;;;;;;;;;;4991797;28;20027;-78
2024/03/03 14:02:44;;;;;;;9.10;6.57;;;;;;;;;;4991518;28;20502;-78
2024/03/03 14:05:09;;;;;;;9.57;6.22;;;;;;;;;;4989028;28;20044;-78
2024/03/03 14:07:35;;;;;;;9.43;6.15;;;;;;;;;;4991813;28;20136;-78
2024/03/03 14:10:00;;;;;;;9.20;6.27;;;;;;;;;;4991887;28;20093;-78
2024/03/03 14:12:25;;;;;;;10.80;6.63;;;;;;;;;;4993294;28;20376;-78
2024/03/03 14:14:50;;;;;;;9.75;6.60;;;;;;;;;;4991569;28;20301;-78